KLKV/LKV METAR and TAF weather

Enter ICAO airport designator
Station Type Date Time Source
KLKV METAR 2021/07/29 02:53 UTC NOAA

KLKV 290253Z AUTO 25004KT 10SM CLR 27/01 A3019 RMK AO2 SLP184 T02670011 55003


Station Type Date Time Source
KLKV Decoded METAR 2021/07/29 02:53 UTC NOAA

Lakeview, Lake County Airport, OR, United States (KLKV) 42-10N 120-24W
Jul 28, 2021 - 10:53 PM EDT / 2021.07.29 0253 UTC
Wind: from the WSW (250 degrees) at 5 MPH (4 KT):0
Visibility: 10 mile(s):0
Sky conditions: clear
Temperature: 80.1 F (26.7 C)
Dew Point: 34.0 F (1.1 C)
Relative Humidity: 18%
Pressure (altimeter): 30.19 in. Hg (1022 hPa)
Pressure tendency: 0.01 inches (0.3 hPa) lower than three hours ago
ob: KLKV 290253Z AUTO 25004KT 10SM CLR 27/01 A3019 RMK AO2 SLP184 T02670011 55003
cycle: 3

Station Type Date Time Source
KLKV TAF UTC NOAA

Error!

Example: see airport list